KDUG/DUG METAR and TAF weather

Enter ICAO airport designator
Station Type Date Time Source
KDUG METAR 2019/02/20 06:56 UTC NOAA

KDUG 200656Z AUTO 14003KT 10SM CLR M04/M11 A3004 RMK AO2 SLP176 T10441111 400781061


Station Type Date Time Source
KDUG Decoded METAR 2019/02/20 06:56 UTC NOAA

BISBEE DOUGLAS INTERNATIONAL AIRPORT , AZ, United States (KDUG) 31-28N 109-36W
Feb 20, 2019 - 01:56 AM EST / 2019.02.20 0656 UTC
Wind: from the SE (140 degrees) at 3 MPH (3 KT):0
Visibility: 10 mile(s):0
Sky conditions: clear
Temperature: 24.1 F (-4.4 C)
Dew Point: 12.0 F (-11.1 C)
Relative Humidity: 59%
Pressure (altimeter): 30.04 in. Hg (1017 hPa)
ob: KDUG 200656Z AUTO 14003KT 10SM CLR M04/M11 A3004 RMK AO2 SLP176 T10441111 400781061
cycle: 7

Station Type Date Time Source
KDUG TAF 2019/02/20 06:22 UTC NOAA

TAF KDUG 200520Z 2006/2106 36006KT P6SM FEW250
FM200900 VRB04KT P6SM FEW250
FM202100 21010G16KT P6SM SCT250


Example: see airport list